Time;durP1;ratioP1;P1;durP2;ratioP2;P2;SDS_P1;SDS_P2;PMS_P1;PMS_P2;Temp;Humidity;BMP_temperature;BMP_pressure;BME280_temperature;BME280_humidity;BME280_pressure;Samples;Min_cycle;Max_cycle;Signal;HPM_P1;HPM_P2
2022/08/05 00:01:17;;;;;;;9.48;5.97;;;;;;;17.81;95.59;101268.72;4976676;28;20121;-79
2022/08/05 00:03:43;;;;;;;8.15;6.22;;;;;;;17.84;96.59;101268.47;4981620;28;20038;-79
2022/08/05 00:06:09;;;;;;;8.98;6.70;;;;;;;17.96;97.33;101271.22;4981559;28;20400;-79
2022/08/05 00:08:34;;;;;;;8.65;6.32;;;;;;;17.96;96.46;101257.75;4985870;28;20053;-79
2022/08/05 00:11:02;;;;;;;8.82;6.60;;;;;;;17.96;95.58;101247.00;4978299;28;20436;-79
2022/08/05 00:13:32;;;;;;;8.13;6.85;;;;;;;17.92;95.65;101255.28;4990136;28;20038;-79
2022/08/05 00:15:57;;;;;;;9.77;6.72;;;;;;;17.92;95.49;101257.97;4981243;28;20054;-79
2022/08/05 00:18:22;;;;;;;9.52;7.00;;;;;;;17.92;95.40;101260.69;4973953;28;20046;-79
2022/08/05 00:20:48;;;;;;;11.65;7.45;;;;;;;17.89;95.83;101252.84;4977084;28;20031;-81
2022/08/05 00:23:14;;;;;;;11.35;7.18;;;;;;;17.95;95.65;101254.22;4976542;28;20099;-80
2022/08/05 00:25:39;;;;;;;8.43;6.88;;;;;;;18.04;95.81;101258.91;4975524;28;20058;-80
2022/08/05 00:28:04;;;;;;;10.00;7.63;;;;;;;18.07;95.91;101261.38;4979810;28;20089;-80
2022/08/05 00:30:30;;;;;;;8.45;7.22;;;;;;;17.99;95.40;101268.31;4989253;28;20023;-79
2022/08/05 00:32:55;;;;;;;9.27;7.32;;;;;;;18.03;96.08;101257.19;4972838;28;20034;-80
2022/08/05 00:35:20;;;;;;;11.52;7.68;;;;;;;18.07;95.43;101266.75;4971192;28;20541;-79
2022/08/05 00:37:45;;;;;;;9.02;7.30;;;;;;;18.02;95.53;101258.16;4983748;28;20034;-79
2022/08/05 00:40:11;;;;;;;10.35;8.00;;;;;;;18.13;96.44;101268.13;4977908;28;20031;-79
2022/08/05 00:42:38;;;;;;;9.63;7.43;;;;;;;18.03;95.45;101262.56;4981095;28;20030;-80
2022/08/05 00:45:06;;;;;;;10.45;7.75;;;;;;;18.00;95.24;101264.63;4983487;28;20080;-79
2022/08/05 00:47:32;;;;;;;9.38;7.75;;;;;;;18.11;96.02;101256.63;4976554;28;20058;-79
2022/08/05 00:49:57;;;;;;;10.40;8.05;;;;;;;18.18;95.79;101257.84;4973128;28;20480;-79
2022/08/05 00:52:22;;;;;;;11.63;8.45;;;;;;;18.23;95.44;101265.59;4982831;28;20022;-79
2022/08/05 00:54:48;;;;;;;14.23;8.90;;;;;;;18.19;95.22;101247.94;4980318;28;20232;-79
2022/08/05 00:57:13;;;;;;;12.70;8.52;;;;;;;18.13;95.08;101239.34;4983146;28;20038;-79
2022/08/05 00:59:39;;;;;;;12.05;8.18;;;;;;;18.22;95.40;101248.53;4992471;28;20680;-80
2022/08/05 01:02:04;;;;;;;14.35;8.35;;;;;;;18.26;95.24;101260.81;4995074;28;20030;-79
2022/08/05 01:04:29;;;;;;;11.13;8.80;;;;;;;18.29;95.92;101255.19;4980118;28;20681;-79
2022/08/05 01:06:55;;;;;;;10.95;8.65;;;;;;;18.27;95.85;101262.56;4979332;28;20387;-78
2022/08/05 01:09:20;;;;;;;13.27;8.50;;;;;;;18.19;95.05;101256.88;4984423;28;20027;-79
2022/08/05 01:11:49;;;;;;;10.40;8.45;;;;;;;18.17;95.31;101273.16;4988091;28;20038;-78
2022/08/05 01:14:25;;;;;;;9.85;8.50;;;;;;;18.22;96.55;101280.03;4980444;28;20070;-79
2022/08/05 01:17:10;;;;;;;11.45;8.35;;;;;;;18.29;95.96;101292.06;4980908;28;20026;-79
2022/08/05 01:19:42;;;;;;;11.35;8.15;;;;;;;18.34;95.31;101304.19;4984410;28;20718;-79
2022/08/05 01:22:20;;;;;;;11.13;7.93;;;;;;;18.43;95.91;101318.81;4983760;28;20029;-79
2022/08/05 01:24:48;;;;;;;13.82;8.00;;;;;;;18.49;95.32;101321.03;4989499;28;20404;-79
2022/08/05 01:27:38;;;;;;;11.90;7.65;;;;;;;18.57;94.89;101337.50;4975248;28;20053;-79
2022/08/05 01:30:05;;;;;;;8.63;7.70;;;;;;;18.55;94.98;101350.22;4989314;28;20045;-79
2022/08/05 01:32:33;;;;;;;12.38;8.23;;;;;;;18.53;94.95;101351.31;4972435;28;20041;-78
2022/08/05 01:35:08;;;;;;;11.32;7.25;;;;;;;18.54;94.00;101345.81;4978727;28;20023;-80
2022/08/05 01:37:43;;;;;;;11.15;8.43;;;;;;;18.59;93.99;101343.63;4984614;28;20027;-78
2022/08/05 01:40:09;;;;;;;10.10;7.28;;;;;;;18.54;93.21;101347.66;4995015;28;20145;-78
2022/08/05 01:42:38;;;;;;;12.82;7.38;;;;;;;18.51;93.98;101348.72;4980079;28;20081;-78
2022/08/05 01:45:06;;;;;;;10.65;7.57;;;;;;;18.54;93.58;101337.72;4984830;28;20069;-79
2022/08/05 01:47:34;;;;;;;10.85;8.13;;;;;;;18.49;93.21;101336.38;4977947;28;20519;-76
2022/08/05 01:50:03;;;;;;;10.05;7.82;;;;;;;18.45;93.51;101346.50;4977752;28;20034;-78
2022/08/05 01:52:31;;;;;;;11.07;8.13;;;;;;;18.52;93.72;101352.28;4976043;28;20080;-78
2022/08/05 01:55:00;;;;;;;11.32;7.80;;;;;;;18.48;94.06;101348.97;4980347;28;20048;-78
2022/08/05 01:57:32;;;;;;;10.88;7.60;;;;;;;18.51;94.43;101323.63;4979913;28;20042;-79
2022/08/05 02:00:01;;;;;;;10.00;7.85;;;;;;;18.50;93.80;101294.94;4976056;28;20039;-79
2022/08/05 02:02:29;;;;;;;13.90;7.63;;;;;;;18.41;94.14;101270.41;4978391;28;20042;-79
2022/08/05 02:04:59;;;;;;;11.68;8.10;;;;;;;18.28;95.17;101276.88;4989988;28;20034;-79
2022/08/05 02:07:25;;;;;;;12.73;8.65;;;;;;;18.23;95.47;101288.00;4976164;28;20103;-79
2022/08/05 02:09:50;;;;;;;9.85;8.27;;;;;;;18.16;96.65;101284.91;4978752;28;20031;-79
2022/08/05 02:12:35;;;;;;;10.60;8.13;;;;;;;18.07;96.62;101277.53;4972446;28;20038;-78
2022/08/05 02:15:27;;;;;;;15.27;8.68;;;;;;;18.07;97.20;101282.91;4981361;28;20098;-79
2022/08/05 02:18:06;;;;;;;12.82;8.40;;;;;;;18.03;97.51;101278.72;4972348;28;20100;-80
2022/08/05 02:20:53;;;;;;;10.73;7.65;;;;;;;18.04;97.50;101310.06;4979623;28;20520;-79
2022/08/05 02:23:24;;;;;;;12.23;7.45;;;;;;;18.05;95.79;101316.31;4993611;28;20491;-79
2022/08/05 02:25:51;;;;;;;8.73;7.20;;;;;;;17.99;95.12;101303.31;4973364;28;20035;-79
2022/08/05 02:28:28;;;;;;;10.05;7.20;;;;;;;18.04;96.52;101315.47;4981513;28;20372;-80
2022/08/05 02:31:04;;;;;;;12.00;7.40;;;;;;;18.10;95.84;101316.81;4981132;28;20084;-80
2022/08/05 02:33:34;;;;;;;16.45;7.85;;;;;;;18.10;95.65;101317.72;4988482;28;20580;-80
2022/08/05 02:36:01;;;;;;;11.07;6.90;;;;;;;18.02;95.40;101322.81;4971953;28;20537;-79
2022/08/05 02:38:28;;;;;;;10.07;7.30;;;;;;;17.95;95.13;101326.06;4978874;28;20495;-80
2022/08/05 02:40:56;;;;;;;9.43;6.65;;;;;;;17.94;95.32;101318.97;4978699;28;20385;-78
2022/08/05 02:43:23;;;;;;;9.00;6.68;;;;;;;18.02;94.99;101316.56;4969748;28;20034;-78
2022/08/05 02:45:50;;;;;;;13.32;7.00;;;;;;;18.00;95.47;101310.41;4979494;28;20026;-79
2022/08/05 02:48:16;;;;;;;8.18;6.82;;;;;;;18.00;94.76;101318.50;4979793;28;20093;-78
2022/08/05 02:50:45;;;;;;;8.45;6.43;;;;;;;17.99;94.56;101300.63;4972730;28;20121;-80
2022/08/05 02:53:13;;;;;;;8.77;5.90;;;;;;;17.94;94.53;101292.03;4977207;28;20039;-79
2022/08/05 02:55:38;;;;;;;8.85;6.53;;;;;;;17.89;94.67;101290.56;4979037;28;20487;-79
2022/08/05 02:58:04;;;;;;;12.98;7.00;;;;;;;17.96;95.39;101300.84;4980608;28;20039;-80
2022/08/05 03:00:30;;;;;;;12.43;6.82;;;;;;;17.95;95.53;101289.22;4990666;28;20034;-80
2022/08/05 03:02:56;;;;;;;11.80;6.68;;;;;;;17.89;95.11;101278.88;4987897;28;20084;-79
2022/08/05 03:05:22;;;;;;;10.10;6.85;;;;;;;17.83;95.34;101274.84;4982127;28;20034;-79
2022/08/05 03:07:48;;;;;;;10.30;6.63;;;;;;;17.81;95.74;101281.31;4974829;28;20026;-80
2022/08/05 03:10:15;;;;;;;14.35;7.18;;;;;;;17.83;96.40;101268.59;4977917;28;20037;-79
2022/08/05 03:12:40;;;;;;;12.63;6.88;;;;;;;17.87;94.74;101276.31;4980473;28;20031;-80
2022/08/05 03:15:08;;;;;;;11.57;6.97;;;;;;;17.90;95.40;101275.25;4974700;28;20042;-80
2022/08/05 03:17:33;;;;;;;8.68;6.55;;;;;;;17.86;94.48;101292.59;4982212;28;20030;-79
2022/08/05 03:19:59;;;;;;;9.27;6.65;;;;;;;17.85;95.44;101297.13;4983100;28;20058;-80
2022/08/05 03:22:24;;;;;;;10.15;6.80;;;;;;;17.86;95.46;101304.22;4982933;28;20026;-79
2022/08/05 03:24:51;;;;;;;11.18;6.18;;;;;;;17.82;94.91;101299.19;4984079;28;20051;-79
2022/08/05 03:27:17;;;;;;;10.05;6.68;;;;;;;17.72;95.11;101298.97;4984082;28;20405;-80
2022/08/05 03:29:43;;;;;;;11.93;6.80;;;;;;;17.73;95.50;101303.41;4980081;28;20050;-79
2022/08/05 03:32:09;;;;;;;9.63;6.80;;;;;;;17.73;96.35;101316.00;4980861;28;20145;-79
2022/08/05 03:34:35;;;;;;;14.23;7.65;;;;;;;17.77;96.55;101313.00;4970879;28;20027;-80
2022/08/05 03:37:02;;;;;;;11.95;7.10;;;;;;;17.68;95.54;101300.16;4991082;28;20087;-79
2022/08/05 03:39:28;;;;;;;12.18;7.10;;;;;;;17.60;97.09;101297.19;4987163;28;20033;-79
2022/08/05 03:41:54;;;;;;;10.75;7.18;;;;;;;17.47;97.96;101305.28;5005815;28;20375;-80
2022/08/05 03:44:20;;;;;;;11.13;7.30;;;;;;;17.32;99.31;101299.19;4993794;28;20038;-80
2022/08/05 03:46:45;;;;;;;11.95;7.45;;;;;;;17.25;99.87;101297.91;4998118;28;20395;-80
2022/08/05 03:49:10;;;;;;;10.70;8.23;;;;;;;17.20;100.00;101304.59;5000043;28;20037;-80
2022/08/05 03:52:03;;;;;;;10.93;7.68;;;;;;;17.10;100.00;101316.00;4986819;28;20022;-79
2022/08/05 03:54:47;;;;;;;15.63;8.63;;;;;;;17.08;100.00;101320.63;4984148;28;20042;-80
2022/08/05 03:57:13;;;;;;;12.75;8.30;;;;;;;17.09;100.00;101324.16;5012151;28;20044;-79
2022/08/05 03:59:52;;;;;;;19.13;10.57;;;;;;;17.16;100.00;101329.00;4999317;28;20454;-79
2022/08/05 04:02:19;;;;;;;13.60;8.63;;;;;;;17.04;100.00;101315.56;5005977;28;20125;-80
2022/08/05 04:04:45;;;;;;;16.63;9.45;;;;;;;17.01;100.00;101313.94;4995079;28;20092;-81
2022/08/05 04:07:11;;;;;;;13.68;8.80;;;;;;;16.94;100.00;101301.91;4994572;28;20033;-80
2022/08/05 04:09:37;;;;;;;15.52;9.57;;;;;;;16.89;100.00;101307.63;4989869;28;20439;-81
2022/08/05 04:12:03;;;;;;;15.13;9.63;;;;;;;16.93;100.00;101301.06;4988548;28;20039;-81
2022/08/05 04:14:29;;;;;;;17.23;9.70;;;;;;;16.82;100.00;101290.19;4986970;28;20037;-80
2022/08/05 04:16:55;;;;;;;14.20;8.90;;;;;;;16.76;100.00;101295.13;4986785;28;20030;-81
2022/08/05 04:19:20;;;;;;;16.27;9.90;;;;;;;16.79;100.00;101293.09;4989161;28;20499;-80
2022/08/05 04:21:45;;;;;;;16.02;9.98;;;;;;;16.78;100.00;101293.19;4992744;28;20035;-80
2022/08/05 04:24:11;;;;;;;13.75;9.73;;;;;;;16.71;100.00;101287.34;4979325;28;20031;-80
2022/08/05 04:26:37;;;;;;;17.55;10.18;;;;;;;16.74;100.00;101283.63;4973443;28;20034;-80
2022/08/05 04:29:02;;;;;;;15.15;10.00;;;;;;;16.75;100.00;101291.56;4990264;28;20076;-79
2022/08/05 04:31:27;;;;;;;12.60;10.07;;;;;;;16.65;100.00;101293.16;4987476;28;20384;-80
2022/08/05 04:33:53;;;;;;;15.38;10.20;;;;;;;16.61;100.00;101305.09;4984288;28;20041;-80
2022/08/05 04:36:18;;;;;;;14.45;10.15;;;;;;;16.53;100.00;101310.97;4979124;28;20085;-80
2022/08/05 04:38:44;;;;;;;13.95;10.25;;;;;;;16.56;100.00;101313.47;4980606;28;20019;-80
2022/08/05 04:41:09;;;;;;;17.52;10.40;;;;;;;16.59;100.00;101307.84;4992520;28;20034;-79
2022/08/05 04:43:35;;;;;;;15.68;10.07;;;;;;;16.59;100.00;101310.53;4982115;28;20041;-79
2022/08/05 04:46:01;;;;;;;16.55;9.85;;;;;;;16.61;100.00;101329.28;4974480;28;20026;-79
2022/08/05 04:48:27;;;;;;;14.30;9.90;;;;;;;16.52;100.00;101330.75;4973566;28;20113;-78
2022/08/05 04:50:52;;;;;;;15.50;11.27;;;;;;;16.60;100.00;101331.09;4976780;28;20056;-78
2022/08/05 04:53:18;;;;;;;17.20;11.10;;;;;;;16.59;100.00;101325.81;4977355;28;20477;-79
2022/08/05 04:55:44;;;;;;;13.75;10.23;;;;;;;16.51;100.00;101322.78;4972298;28;20027;-79
2022/08/05 04:58:12;;;;;;;15.60;10.48;;;;;;;16.54;100.00;101323.44;4983889;28;20061;-78
2022/08/05 05:00:38;;;;;;;20.00;11.00;;;;;;;16.58;100.00;101316.91;4979697;28;20069;-78
2022/08/05 05:03:05;;;;;;;15.00;10.07;;;;;;;16.50;100.00;101310.31;4982417;28;20054;-79
2022/08/05 05:05:31;;;;;;;16.80;10.65;;;;;;;16.55;100.00;101327.00;4981189;28;20027;-79
2022/08/05 05:08:02;;;;;;;18.65;11.20;;;;;;;16.54;100.00;101330.66;4975915;28;20042;-79
2022/08/05 05:10:32;;;;;;;15.32;10.82;;;;;;;16.50;100.00;101334.50;4980951;28;20435;-80
2022/08/05 05:12:57;;;;;;;15.40;11.38;;;;;;;16.56;100.00;101328.72;4979673;28;20023;-78
2022/08/05 05:15:26;;;;;;;17.52;11.00;;;;;;;16.58;100.00;101337.53;4984857;28;20043;-78
2022/08/05 05:17:51;;;;;;;15.40;11.35;;;;;;;16.58;100.00;101329.47;4971018;28;20027;-78
2022/08/05 05:20:16;;;;;;;15.82;10.82;;;;;;;16.52;100.00;101327.22;4972223;28;20039;-79
2022/08/05 05:22:42;;;;;;;16.85;11.05;;;;;;;16.48;100.00;101328.41;4981251;28;20397;-78
2022/08/05 05:25:08;;;;;;;15.48;11.23;;;;;;;16.46;100.00;101325.78;4973392;28;20118;-78
2022/08/05 05:27:35;;;;;;;16.38;11.38;;;;;;;16.42;100.00;101321.59;4973914;28;20037;-78
2022/08/05 05:30:00;;;;;;;15.48;11.63;;;;;;;16.36;100.00;101328.25;4973203;28;20069;-79
2022/08/05 05:32:26;;;;;;;19.13;11.75;;;;;;;16.38;100.00;101334.38;4981843;28;20042;-78
2022/08/05 05:34:51;;;;;;;16.40;12.00;;;;;;;16.47;100.00;101345.44;4983509;28;20207;-77
2022/08/05 05:37:17;;;;;;;14.25;11.32;;;;;;;16.52;100.00;101354.09;4973498;28;20027;-78
2022/08/05 05:39:42;;;;;;;17.27;12.05;;;;;;;16.52;100.00;101354.09;4982036;28;20109;-78
2022/08/05 05:42:07;;;;;;;16.67;11.32;;;;;;;16.51;100.00;101357.72;4981607;28;20031;-78
2022/08/05 05:44:33;;;;;;;17.73;12.07;;;;;;;16.50;100.00;101342.56;4984801;28;20049;-78
2022/08/05 05:46:58;;;;;;;21.30;12.13;;;;;;;16.56;100.00;101353.78;4973199;28;20054;-77
2022/08/05 05:49:25;;;;;;;17.95;11.77;;;;;;;16.49;100.00;101348.91;4978138;28;20030;-78
2022/08/05 05:51:50;;;;;;;16.42;10.93;;;;;;;16.52;100.00;101349.56;4985224;28;20053;-78
2022/08/05 05:54:15;;;;;;;18.48;11.93;;;;;;;16.54;100.00;101357.53;4981272;28;20066;-76
2022/08/05 05:56:40;;;;;;;18.52;11.75;;;;;;;16.52;100.00;101357.63;4981620;28;20069;-78
2022/08/05 05:59:06;;;;;;;17.95;10.50;;;;;;;16.53;100.00;101356.66;4986619;28;20476;-77
2022/08/05 06:01:39;;;;;;;17.38;10.77;;;;;;;16.61;100.00;101362.38;4978555;28;20039;-77
2022/08/05 06:04:10;;;;;;;19.15;11.43;;;;;;;16.63;100.00;101362.25;4984568;28;20054;-77
2022/08/05 06:06:35;;;;;;;14.35;10.40;;;;;;;16.60;100.00;101368.72;4987446;28;20050;-77
2022/08/05 06:09:02;;;;;;;15.95;11.10;;;;;;;16.60;100.00;101371.41;4978412;28;20084;-77
2022/08/05 06:11:28;;;;;;;13.95;11.68;;;;;;;16.58;100.00;101370.66;4984498;28;20092;-78
2022/08/05 06:13:53;;;;;;;17.67;11.80;;;;;;;16.61;100.00;101358.84;4981988;28;20468;-75
2022/08/05 06:16:18;;;;;;;17.33;11.93;;;;;;;16.67;100.00;101367.31;4980170;28;20029;-78
2022/08/05 06:18:43;;;;;;;19.50;12.37;;;;;;;16.78;100.00;101371.16;4980047;28;20408;-78
2022/08/05 06:21:09;;;;;;;15.18;12.20;;;;;;;16.80;100.00;101372.75;4976485;28;20311;-78
2022/08/05 06:23:34;;;;;;;17.20;12.98;;;;;;;16.86;100.00;101364.28;4975736;28;20034;-79
2022/08/05 06:25:59;;;;;;;19.27;12.93;;;;;;;16.97;100.00;101373.41;4982328;28;20490;-79
2022/08/05 06:28:25;;;;;;;21.95;15.02;;;;;;;17.12;100.00;101367.00;4973538;28;20066;-80
2022/08/05 06:30:50;;;;;;;17.50;13.32;;;;;;;17.22;100.00;101372.56;4990824;28;20104;-77
2022/08/05 06:33:15;;;;;;;21.80;13.38;;;;;;;17.27;100.00;101370.44;4981143;28;20031;-78
2022/08/05 06:35:40;;;;;;;15.07;12.23;;;;;;;17.24;100.00;101379.56;4973295;28;20084;-79
2022/08/05 06:38:06;;;;;;;17.92;11.85;;;;;;;17.20;100.00;101372.69;4982243;28;20365;-78
2022/08/05 06:40:31;;;;;;;14.32;11.52;;;;;;;17.24;100.00;101382.28;4984973;28;20022;-79
2022/08/05 06:42:56;;;;;;;15.75;11.68;;;;;;;17.25;100.00;101385.81;4981642;28;20041;-79
2022/08/05 06:45:22;;;;;;;17.20;12.48;;;;;;;17.40;100.00;101396.38;4987962;28;20037;-78
2022/08/05 06:47:47;;;;;;;15.95;11.95;;;;;;;17.48;100.00;101394.97;4988449;28;20028;-78
2022/08/05 06:50:12;;;;;;;17.02;12.05;;;;;;;17.47;100.00;101393.22;4990670;28;20041;-78
2022/08/05 06:52:38;;;;;;;14.52;12.15;;;;;;;17.66;100.00;101402.56;4982886;28;20101;-78
2022/08/05 06:55:04;;;;;;;19.80;12.63;;;;;;;17.84;100.00;101418.41;4989200;28;20044;-78
2022/08/05 06:57:29;;;;;;;16.95;12.65;;;;;;;17.91;100.00;101407.09;4987199;28;20037;-78
2022/08/05 06:59:54;;;;;;;15.82;9.98;;;;;;;17.82;100.00;101410.44;4986707;28;20030;-78
2022/08/05 07:02:20;;;;;;;15.10;9.80;;;;;;;17.82;100.00;101421.22;4996349;28;20042;-78
2022/08/05 07:04:45;;;;;;;14.68;10.43;;;;;;;17.87;100.00;101423.56;4985264;28;21261;-78
2022/08/05 07:07:11;;;;;;;15.30;10.25;;;;;;;17.81;100.00;101411.44;4986963;28;20053;-78
2022/08/05 07:09:37;;;;;;;12.93;9.25;;;;;;;17.87;99.43;101428.97;5000308;28;20110;-78
2022/08/05 07:12:02;;;;;;;13.73;9.80;;;;;;;17.94;98.92;101422.16;4984802;28;20133;-76
2022/08/05 07:17:11;;;;;;;;;;;;;;;18.19;100.00;101434.69;4989813;28;20141;-77
2022/08/05 07:19:37;;;;;;;20.47;9.70;;;;;;;18.20;98.21;101427.47;4986499;28;20323;-78
2022/08/05 07:22:03;;;;;;;15.55;10.38;;;;;;;18.26;97.76;101433.25;4984694;28;20113;-78
2022/08/05 07:24:28;;;;;;;16.35;10.30;;;;;;;18.38;96.33;101432.34;4987738;28;20026;-78
2022/08/05 07:26:54;;;;;;;13.60;10.13;;;;;;;18.52;97.01;101427.75;4987894;28;20136;-76
2022/08/05 07:29:19;;;;;;;17.38;10.13;;;;;;;18.89;95.28;101450.13;4991131;28;20530;-78
2022/08/05 07:31:44;;;;;;;11.15;9.18;;;;;;;19.05;92.52;101453.38;4975057;28;20030;-78
2022/08/05 07:34:10;;;;;;;13.18;8.73;;;;;;;19.13;92.48;101447.41;4991474;28;20042;-77
2022/08/05 07:36:35;;;;;;;13.38;8.95;;;;;;;19.21;90.32;101450.38;4986885;28;20030;-78
2022/08/05 07:39:02;;;;;;;14.80;9.63;;;;;;;19.34;91.41;101456.53;4992164;28;20042;-78
2022/08/05 07:41:28;;;;;;;12.27;9.43;;;;;;;19.63;89.83;101459.66;4976485;28;20030;-78
2022/08/05 07:43:54;;;;;;;10.93;8.18;;;;;;;19.74;86.75;101466.06;4988133;28;20030;-77
2022/08/05 07:46:20;;;;;;;14.25;8.60;;;;;;;19.69;87.25;101458.34;5000989;28;20340;-78
2022/08/05 07:48:45;;;;;;;12.52;8.98;;;;;;;19.74;86.29;101469.63;4998001;28;20470;-78
2022/08/05 07:51:11;;;;;;;20.05;13.82;;;;;;;19.92;87.42;101478.09;4993498;28;20033;-78
2022/08/05 07:53:36;;;;;;;11.40;8.02;;;;;;;20.01;84.44;101471.94;4987118;28;20026;-79
2022/08/05 07:56:03;;;;;;;9.85;8.15;;;;;;;20.13;85.70;101472.81;4987434;28;20039;-80
2022/08/05 07:58:28;;;;;;;11.20;8.15;;;;;;;20.22;84.74;101460.38;4987552;28;20548;-79
2022/08/05 08:00:54;;;;;;;12.55;8.13;;;;;;;20.24;83.25;101471.94;4979376;28;20064;-80
2022/08/05 08:03:19;;;;;;;12.70;7.50;;;;;;;20.27;82.17;101469.81;4980844;28;20046;-79
2022/08/05 08:05:44;;;;;;;10.75;6.60;;;;;;;20.28;79.49;101476.97;4987515;28;20070;-78
2022/08/05 08:08:10;;;;;;;9.57;6.00;;;;;;;20.23;80.48;101484.59;4981450;28;20444;-80
2022/08/05 08:10:36;;;;;;;7.63;6.28;;;;;;;20.26;79.65;101483.47;4988926;28;20362;-80
2022/08/05 08:13:02;;;;;;;8.20;5.72;;;;;;;20.31;80.67;101482.09;4979384;28;20484;-80
2022/08/05 08:15:27;;;;;;;9.75;6.00;;;;;;;20.60;79.32;101477.03;4983587;28;20041;-80
2022/08/05 08:17:52;;;;;;;14.48;10.27;;;;;;;20.94;79.98;101485.03;4984091;28;20041;-80
2022/08/05 08:20:22;;;;;;;7.50;5.32;;;;;;;21.14;75.64;101502.28;4989686;28;20676;-80
2022/08/05 08:22:54;;;;;;;6.72;5.05;;;;;;;21.34;77.11;101493.34;4985626;28;20029;-80
2022/08/05 08:25:20;;;;;;;7.47;5.00;;;;;;;21.24;76.67;101503.22;4979063;28;20097;-80
2022/08/05 08:27:46;;;;;;;7.43;5.00;;;;;;;21.53;74.86;101505.31;4979505;28;20026;-80
2022/08/05 08:30:12;;;;;;;6.68;4.20;;;;;;;22.01;68.84;101499.28;4986087;28;20118;-79
2022/08/05 08:32:38;;;;;;;7.07;4.20;;;;;;;22.10;67.24;101501.16;4984289;28;20053;-80
2022/08/05 08:35:03;;;;;;;6.18;4.32;;;;;;;22.23;65.92;101511.81;4993287;28;20042;-80
2022/08/05 08:37:29;;;;;;;5.82;3.22;;;;;;;22.18;64.33;101512.22;4991334;28;20034;-80
2022/08/05 08:39:54;;;;;;;4.90;3.35;;;;;;;22.27;65.48;101494.25;4984544;28;20034;-80
2022/08/05 08:42:21;;;;;;;5.97;3.55;;;;;;;22.45;62.66;101521.56;4981322;28;20102;-80
2022/08/05 08:44:47;;;;;;;5.80;3.65;;;;;;;22.41;65.50;101521.03;4985687;28;20019;-80
2022/08/05 08:47:14;;;;;;;7.60;4.25;;;;;;;22.22;65.22;101527.22;4976576;28;20495;-79
2022/08/05 08:49:43;;;;;;;7.15;3.45;;;;;;;22.30;65.98;101535.53;4990870;28;20031;-79
2022/08/05 08:52:16;;;;;;;8.10;3.55;;;;;;;22.20;63.70;101539.22;4977986;28;20573;-78
2022/08/05 08:54:43;;;;;;;4.38;2.90;;;;;;;22.06;65.33;101543.09;4972492;28;20520;-78
2022/08/05 08:57:10;;;;;;;3.70;2.90;;;;;;;21.91;63.31;101547.19;4972634;28;20031;-78
2022/08/05 08:59:36;;;;;;;4.88;2.92;;;;;;;22.17;64.83;101548.47;4977443;28;20035;-78
2022/08/05 09:02:05;;;;;;;9.25;5.40;;;;;;;22.91;62.28;101552.69;4982899;28;20026;-78
2022/08/05 09:04:35;;;;;;;5.38;3.15;;;;;;;23.18;61.53;101561.00;4974321;28;20033;-78
2022/08/05 09:07:01;;;;;;;5.35;3.00;;;;;;;23.13;60.96;101554.28;4973543;28;20030;-79
2022/08/05 09:09:26;;;;;;;6.85;3.03;;;;;;;23.28;60.46;101563.72;4971308;28;20520;-79
2022/08/05 09:11:52;;;;;;;6.13;2.63;;;;;;;23.60;59.08;101568.84;4974265;28;20045;-79
2022/08/05 09:14:17;;;;;;;4.75;2.47;;;;;;;24.22;56.70;101572.88;4986928;28;20030;-79
2022/08/05 09:16:42;;;;;;;3.65;2.30;;;;;;;25.42;52.58;101571.88;4986086;28;20018;-78
2022/08/05 09:19:08;;;;;;;4.38;2.20;;;;;;;26.43;51.33;101572.22;4985226;28;20106;-79
2022/08/05 09:21:34;;;;;;;4.40;2.30;;;;;;;26.60;48.66;101573.19;4981765;28;20113;-78
2022/08/05 09:24:08;;;;;;;4.60;2.50;;;;;;;25.71;50.26;101577.91;4980014;28;20156;-78
2022/08/05 09:26:35;;;;;;;4.63;2.45;;;;;;;25.79;49.95;101575.28;4976232;28;20034;-78
2022/08/05 09:29:03;;;;;;;5.95;2.20;;;;;;;26.25;49.70;101581.34;4976537;28;20498;-78
2022/08/05 09:31:29;;;;;;;4.10;1.83;;;;;;;26.64;46.13;101578.13;4981038;28;20077;-78
2022/08/05 09:34:00;;;;;;;4.53;2.15;;;;;;;26.53;46.64;101586.63;4974860;28;20162;-79
2022/08/05 09:36:38;;;;;;;5.70;2.50;;;;;;;26.74;49.57;101587.03;4976569;28;20117;-79
2022/08/05 09:39:09;;;;;;;4.60;2.00;;;;;;;26.05;47.49;101586.19;4974761;28;20081;-78
2022/08/05 09:41:54;;;;;;;6.43;4.57;;;;;;;25.70;51.67;101597.13;4982999;28;20026;-77
2022/08/05 09:44:40;;;;;;;4.95;2.28;;;;;;;25.57;51.56;101603.00;4970814;28;20498;-78
2022/08/05 09:47:14;;;;;;;5.78;2.47;;;;;;;25.54;49.35;101589.69;4980664;28;20038;-78
2022/08/05 09:49:53;;;;;;;2.72;1.70;;;;;;;26.16;47.92;101590.50;4973587;28;20026;-77
2022/08/05 09:52:31;;;;;;;3.08;1.80;;;;;;;27.71;46.40;101601.88;4983927;28;20036;-78
2022/08/05 09:55:08;;;;;;;4.53;1.88;;;;;;;27.95;40.94;101594.72;4977659;28;20026;-77
2022/08/05 09:57:51;;;;;;;3.67;1.70;;;;;;;27.92;45.84;101606.00;4977661;28;20031;-78
2022/08/05 10:00:23;;;;;;;3.30;1.98;;;;;;;28.61;41.80;101609.09;4984835;28;20043;-78
2022/08/05 10:02:53;;;;;;;3.92;1.98;;;;;;;27.25;43.98;101603.41;4983434;28;20045;-78
2022/08/05 10:05:26;;;;;;;4.15;2.28;;;;;;;25.63;48.18;101610.56;4982658;28;20038;-78
2022/08/05 10:08:00;;;;;;;7.53;4.32;;;;;;;24.53;52.45;101613.44;4983617;28;20514;-78
2022/08/05 10:10:36;;;;;;;4.32;2.28;;;;;;;23.67;53.78;101618.94;4982190;28;20038;-78
2022/08/05 10:13:03;;;;;;;4.28;2.00;;;;;;;23.18;55.71;101628.91;4977838;28;20034;-78
2022/08/05 10:15:34;;;;;;;2.78;1.70;;;;;;;23.17;56.04;101621.75;4983150;28;20547;-78
2022/08/05 10:18:08;;;;;;;4.65;1.90;;;;;;;23.24;55.30;101620.22;4985790;28;20468;-78
2022/08/05 10:20:52;;;;;;;2.95;1.67;;;;;;;23.24;52.46;101617.50;4976325;28;20027;-78
2022/08/05 10:23:21;;;;;;;5.30;1.75;;;;;;;23.48;51.41;101613.47;4979391;28;20045;-78
2022/08/05 10:25:47;;;;;;;5.60;1.73;;;;;;;24.56;51.07;101622.16;4977287;28;20045;-78
2022/08/05 10:28:12;;;;;;;4.22;1.67;;;;;;;26.33;46.58;101607.81;4972544;28;20034;-79
2022/08/05 10:30:39;;;;;;;3.97;1.70;;;;;;;27.83;42.39;101612.50;4983334;28;20027;-79
2022/08/05 10:33:05;;;;;;;2.85;1.42;;;;;;;27.38;42.72;101613.84;4978581;28;20030;-78
2022/08/05 10:35:31;;;;;;;2.97;1.23;;;;;;;26.30;44.82;101621.81;4978186;28;20592;-78
2022/08/05 10:37:59;;;;;;;3.28;1.35;;;;;;;25.58;46.90;101626.50;4979246;28;20050;-78
2022/08/05 10:40:33;;;;;;;2.58;1.30;;;;;;;25.44;45.40;101632.53;4977589;28;20031;-78
2022/08/05 10:43:10;;;;;;;4.22;1.33;;;;;;;24.87;47.06;101634.59;4977920;28;20057;-78
2022/08/05 10:45:36;;;;;;;4.10;1.30;;;;;;;24.35;47.60;101633.22;4976620;28;20105;-79
2022/08/05 10:48:39;;;;;;;3.03;1.30;;;;;;;23.96;47.95;101642.50;4978945;28;20151;-79
2022/08/05 10:51:12;;;;;;;2.97;1.40;;;;;;;23.58;47.24;101633.38;4981323;28;20039;-79
2022/08/05 10:53:43;;;;;;;3.67;1.48;;;;;;;24.89;44.16;101633.44;4984256;28;20026;-79
2022/08/05 10:56:16;;;;;;;4.00;1.55;;;;;;;25.65;41.26;101638.50;4988180;28;20023;-79
2022/08/05 10:58:53;;;;;;;1.88;1.08;;;;;;;25.42;43.43;101643.59;4982961;28;20047;-79
2022/08/05 11:01:38;;;;;;;2.58;1.10;;;;;;;25.31;42.58;101639.22;4980698;28;20027;-79
2022/08/05 11:04:22;;;;;;;2.40;0.90;;;;;;;26.42;37.99;101644.19;4970611;28;20062;-79
2022/08/05 11:06:56;;;;;;;2.35;0.90;;;;;;;27.35;36.58;101647.84;4970548;28;20026;-77
2022/08/05 11:09:24;;;;;;;2.80;0.90;;;;;;;28.82;33.70;101652.31;4976642;28;20491;-79
2022/08/05 11:11:53;;;;;;;1.55;1.05;;;;;;;29.98;31.70;101647.63;4979456;28;20034;-79
2022/08/05 11:14:28;;;;;;;2.50;0.95;;;;;;;31.90;30.00;101643.75;4978158;28;20113;-79
2022/08/05 11:17:25;;;;;;;1.83;0.80;;;;;;;33.63;28.58;101652.88;4974376;28;20026;-79
2022/08/05 11:19:52;;;;;;;2.72;1.20;;;;;;;34.13;24.92;101651.44;4982597;28;20197;-79
2022/08/05 11:22:46;;;;;;;1.70;0.55;;;;;;;33.66;27.99;101647.81;4980435;28;20031;-78
2022/08/05 11:25:32;;;;;;;2.33;0.70;;;;;;;34.22;27.04;101651.19;4986177;28;20065;-78